Time;durP1;ratioP1;P1;durP2;ratioP2;P2;SDS_P1;SDS_P2;PMS_P1;PMS_P2;Temp;Humidity;BMP_temperature;BMP_pressure;BME280_temperature;BME280_humidity;BME280_pressure;Samples;Min_cycle;Max_cycle;Signal;HPM_P1;HPM_P2
2024/01/11 00:02:07;;;;;;;395.80;148.50;;;;;;;-146.82;100.00;71671.09;5036920;28;20041;-78
2024/01/11 00:04:32;;;;;;;381.63;146.20;;;;;;;-146.82;100.00;71671.09;5037091;28;20095;-77
2024/01/11 00:06:58;;;;;;;372.77;147.75;;;;;;;-146.82;100.00;71671.09;5036622;28;20108;-77
2024/01/11 00:09:23;;;;;;;384.52;145.95;;;;;;;-146.82;100.00;71671.09;5036437;28;20026;-77
2024/01/11 00:11:49;;;;;;;373.30;145.40;;;;;;;-146.82;100.00;71671.09;5037065;28;20045;-76
2024/01/11 00:14:14;;;;;;;383.15;143.40;;;;;;;-146.82;100.00;71671.09;5035461;28;20039;-77
2024/01/11 00:16:41;;;;;;;376.27;145.32;;;;;;;-146.82;100.00;71671.09;5039581;28;20035;-76
2024/01/11 00:19:06;;;;;;;379.83;144.50;;;;;;;-146.82;100.00;71671.09;5035833;28;20112;-75
2024/01/11 00:21:32;;;;;;;383.92;148.15;;;;;;;-146.82;100.00;71671.09;5037491;28;20082;-77
2024/01/11 00:23:57;;;;;;;387.75;154.45;;;;;;;-146.82;100.00;71671.09;5039918;28;20104;-76
2024/01/11 00:26:23;;;;;;;367.75;144.35;;;;;;;-146.82;100.00;71671.09;5036366;28;20037;-77
2024/01/11 00:28:48;;;;;;;384.38;144.57;;;;;;;-146.82;100.00;71671.09;5037661;28;20025;-77
2024/01/11 00:31:14;;;;;;;386.60;151.45;;;;;;;-146.82;100.00;71671.09;5039451;28;20027;-77
2024/01/11 00:33:40;;;;;;;374.70;141.38;;;;;;;-146.82;100.00;71671.09;5020799;28;20124;-75
2024/01/11 00:36:05;;;;;;;395.02;153.68;;;;;;;-146.82;100.00;71671.09;5034503;28;20080;-76
2024/01/11 00:38:30;;;;;;;391.23;145.98;;;;;;;-146.82;100.00;71671.09;5033548;28;20098;-77
2024/01/11 00:40:56;;;;;;;372.63;140.52;;;;;;;-146.82;100.00;71671.09;5034694;28;20083;-77
2024/01/11 00:43:21;;;;;;;361.52;139.00;;;;;;;-146.82;100.00;71671.09;5016460;28;20028;-77
2024/01/11 00:45:47;;;;;;;381.17;149.15;;;;;;;-146.82;100.00;71671.09;5033658;28;20033;-77
2024/01/11 00:48:12;;;;;;;383.17;144.45;;;;;;;-146.82;100.00;71671.09;5032702;28;20462;-77
2024/01/11 00:50:38;;;;;;;383.85;143.48;;;;;;;-146.82;100.00;71671.09;5032707;28;20363;-78
2024/01/11 00:53:03;;;;;;;367.17;140.85;;;;;;;-146.82;100.00;71671.09;5031686;28;20381;-77
2024/01/11 00:55:29;;;;;;;389.02;145.23;;;;;;;-146.82;100.00;71671.09;5031643;28;20033;-78
2024/01/11 00:57:54;;;;;;;370.00;141.85;;;;;;;-146.82;100.00;71671.09;5030500;28;20108;-78
2024/01/11 01:00:20;;;;;;;361.10;134.60;;;;;;;-146.82;100.00;71671.09;5031580;28;20241;-77
2024/01/11 01:02:45;;;;;;;381.55;138.55;;;;;;;-146.82;100.00;71671.09;5031862;28;20502;-77
2024/01/11 01:05:11;;;;;;;365.15;136.88;;;;;;;-146.82;100.00;71671.09;5030971;28;20029;-76
2024/01/11 01:07:36;;;;;;;351.08;131.85;;;;;;;-146.82;100.00;71671.09;5032084;28;20033;-77
2024/01/11 01:10:01;;;;;;;368.17;137.35;;;;;;;-146.82;100.00;71671.09;5031822;28;20057;-78
2024/01/11 01:12:28;;;;;;;377.92;142.07;;;;;;;-146.82;100.00;71671.09;5031500;28;20049;-76
2024/01/11 01:14:55;;;;;;;355.35;133.57;;;;;;;-146.82;100.00;71671.09;5031517;28;20048;-76
2024/01/11 01:17:21;;;;;;;363.95;138.02;;;;;;;-146.82;100.00;71671.09;5030514;28;20382;-78
2024/01/11 01:19:47;;;;;;;367.80;134.40;;;;;;;-146.82;100.00;71671.09;5030294;28;20033;-78
2024/01/11 01:22:13;;;;;;;360.42;132.68;;;;;;;-146.82;100.00;71671.09;5031472;28;20034;-76
2024/01/11 01:24:38;;;;;;;346.30;135.05;;;;;;;-146.82;100.00;71671.09;5033356;28;20431;-76
2024/01/11 01:27:03;;;;;;;361.52;135.50;;;;;;;-146.82;100.00;71671.09;5032068;28;20030;-75
2024/01/11 01:29:29;;;;;;;371.52;132.85;;;;;;;-146.82;100.00;71671.09;5032399;28;20033;-78
2024/01/11 01:31:54;;;;;;;350.35;132.73;;;;;;;-146.82;100.00;71671.09;5031956;28;20351;-76
2024/01/11 01:34:20;;;;;;;344.38;131.13;;;;;;;-146.82;100.00;71671.09;5032805;28;20378;-76
2024/01/11 01:36:45;;;;;;;364.98;133.63;;;;;;;-146.82;100.00;71671.09;5032060;28;20046;-79
2024/01/11 01:39:11;;;;;;;355.58;132.15;;;;;;;-146.82;100.00;71671.09;5032086;28;20029;-78
2024/01/11 01:41:36;;;;;;;330.80;130.93;;;;;;;-146.82;100.00;71671.09;5031643;28;20116;-76
2024/01/11 01:44:02;;;;;;;347.77;131.45;;;;;;;-146.82;100.00;71671.09;5033101;28;20488;-76
2024/01/11 01:46:28;;;;;;;325.70;126.68;;;;;;;-146.82;100.00;71671.09;5033309;28;20037;-78
2024/01/11 01:48:54;;;;;;;329.65;124.07;;;;;;;-146.82;100.00;71671.09;5031943;28;20083;-76
2024/01/11 01:51:20;;;;;;;343.13;129.57;;;;;;;-146.82;100.00;71671.09;5031842;28;20108;-80
2024/01/11 01:53:46;;;;;;;318.40;124.32;;;;;;;-146.82;100.00;71671.09;5031806;28;20108;-76
2024/01/11 01:56:11;;;;;;;316.92;121.15;;;;;;;-146.82;100.00;71671.09;5031575;28;20080;-77
2024/01/11 01:58:37;;;;;;;311.98;116.53;;;;;;;-146.82;100.00;71671.09;5033404;28;20036;-76
2024/01/11 02:01:03;;;;;;;317.95;119.32;;;;;;;-146.82;100.00;71671.09;5032521;28;20025;-75
2024/01/11 02:03:29;;;;;;;306.38;117.18;;;;;;;-146.82;100.00;71671.09;5032800;28;20486;-77
2024/01/11 02:05:54;;;;;;;292.08;114.95;;;;;;;-146.82;100.00;71671.09;5033023;28;20330;-77
2024/01/11 02:08:22;;;;;;;302.85;113.28;;;;;;;-146.82;100.00;71671.09;5032972;28;20462;-77
2024/01/11 02:10:48;;;;;;;310.42;111.35;;;;;;;-146.82;100.00;71671.09;5032869;28;20040;-77
2024/01/11 02:13:13;;;;;;;314.23;114.93;;;;;;;-146.82;100.00;71671.09;5032816;28;20390;-79
2024/01/11 02:15:39;;;;;;;291.75;113.07;;;;;;;-146.82;100.00;71671.09;5031750;28;20087;-75
2024/01/11 02:18:05;;;;;;;310.38;109.72;;;;;;;-146.82;100.00;71671.09;5031826;28;20072;-77
2024/01/11 02:20:31;;;;;;;288.40;110.95;;;;;;;-146.82;100.00;71671.09;5034455;28;20114;-76
2024/01/11 02:23:01;;;;;;;303.83;108.18;;;;;;;-146.82;100.00;71671.09;5035974;28;20028;-77
2024/01/11 02:25:27;;;;;;;295.80;112.38;;;;;;;-146.82;100.00;71671.09;5032949;28;20033;-75
2024/01/11 02:27:52;;;;;;;320.52;113.80;;;;;;;-146.82;100.00;71671.09;5034146;28;20075;-77
2024/01/11 02:30:18;;;;;;;297.55;110.07;;;;;;;-146.82;100.00;71671.09;5034180;28;20037;-78
2024/01/11 02:32:46;;;;;;;295.30;112.35;;;;;;;-146.82;100.00;71671.09;5033208;28;20112;-77
2024/01/11 02:35:12;;;;;;;286.00;109.38;;;;;;;-146.82;100.00;71671.09;5014762;28;20052;-76
2024/01/11 02:37:39;;;;;;;293.10;110.20;;;;;;;-146.82;100.00;71671.09;5030101;28;20030;-75
2024/01/11 02:40:08;;;;;;;283.63;109.15;;;;;;;-146.82;100.00;71671.09;5031154;28;20025;-76
2024/01/11 02:42:37;;;;;;;282.35;109.22;;;;;;;-146.82;100.00;71671.09;5033370;28;20037;-77
2024/01/11 02:45:03;;;;;;;292.65;108.07;;;;;;;-146.82;100.00;71671.09;5034663;28;20025;-77
2024/01/11 02:47:29;;;;;;;295.27;108.57;;;;;;;-146.82;100.00;71671.09;5034925;28;20025;-75
2024/01/11 02:49:54;;;;;;;291.48;110.88;;;;;;;-146.82;100.00;71671.09;5033554;28;20389;-76
2024/01/11 02:52:19;;;;;;;281.13;105.88;;;;;;;-146.82;100.00;71671.09;5033744;28;20120;-77
2024/01/11 02:54:45;;;;;;;275.73;105.85;;;;;;;-146.82;100.00;71671.09;5035320;28;20036;-75
2024/01/11 02:57:10;;;;;;;267.08;102.22;;;;;;;-146.82;100.00;71671.09;5033793;28;20032;-77
2024/01/11 02:59:36;;;;;;;265.75;101.47;;;;;;;-146.82;100.00;71671.09;5040313;28;20089;-77
2024/01/11 03:02:01;;;;;;;290.70;108.70;;;;;;;-146.82;100.00;71671.09;5040029;28;20029;-75
2024/01/11 03:04:27;;;;;;;286.60;106.72;;;;;;;-146.82;100.00;71671.09;5043690;28;20036;-75
2024/01/11 03:06:52;;;;;;;257.85;99.97;;;;;;;-146.82;100.00;71671.09;5044231;28;20116;-75
2024/01/11 03:09:18;;;;;;;262.02;101.72;;;;;;;-146.82;100.00;71671.09;5044823;28;20369;-75
2024/01/11 03:11:43;;;;;;;275.42;104.65;;;;;;;-146.82;100.00;71671.09;5043525;28;20394;-77
2024/01/11 03:14:08;;;;;;;252.07;93.90;;;;;;;-146.82;100.00;71671.09;5050204;28;20053;-77
2024/01/11 03:16:34;;;;;;;264.90;100.75;;;;;;;-146.82;100.00;71671.09;5050531;28;20085;-77
2024/01/11 03:18:59;;;;;;;267.13;97.93;;;;;;;-146.82;100.00;71671.09;5048304;28;20029;-76
2024/01/11 03:21:25;;;;;;;273.27;99.18;;;;;;;-146.82;100.00;71671.09;5048293;28;20049;-77
2024/01/11 03:23:50;;;;;;;238.23;92.00;;;;;;;-146.82;100.00;71671.09;5047991;28;20021;-77
2024/01/11 03:26:16;;;;;;;239.98;95.93;;;;;;;-146.82;100.00;71671.09;5042966;28;20090;-76
2024/01/11 03:28:42;;;;;;;257.83;98.97;;;;;;;-146.82;100.00;71671.09;5042752;28;20037;-78
2024/01/11 03:31:11;;;;;;;254.98;96.88;;;;;;;-146.82;100.00;71671.09;5044194;28;20089;-75
2024/01/11 03:33:36;;;;;;;250.07;93.00;;;;;;;-146.82;100.00;71671.09;5042834;28;20429;-76
2024/01/11 03:36:11;;;;;;;262.63;96.90;;;;;;;-146.82;100.00;71671.09;5042147;28;20079;-78
2024/01/11 03:38:37;;;;;;;239.23;93.18;;;;;;;-146.82;100.00;71671.09;5041817;28;20463;-77
2024/01/11 03:41:07;;;;;;;262.73;93.25;;;;;;;-146.82;100.00;71671.09;5039695;28;20036;-76
2024/01/11 03:43:33;;;;;;;247.45;93.55;;;;;;;-146.82;100.00;71671.09;5036648;28;20032;-77
2024/01/11 03:45:58;;;;;;;234.10;92.50;;;;;;;-146.82;100.00;71671.09;5036194;28;20053;-75
2024/01/11 03:48:23;;;;;;;253.38;95.47;;;;;;;-146.82;100.00;71671.09;5035736;28;20108;-75
2024/01/11 03:50:49;;;;;;;245.60;92.35;;;;;;;-146.82;100.00;71671.09;5035336;28;20439;-76
2024/01/11 03:53:14;;;;;;;248.45;96.15;;;;;;;-146.82;100.00;71671.09;5034720;28;20033;-76
2024/01/11 03:55:40;;;;;;;233.07;91.63;;;;;;;-146.82;100.00;71671.09;5034819;28;20096;-75
2024/01/11 03:58:05;;;;;;;236.65;92.18;;;;;;;-146.82;100.00;71671.09;5035289;28;20394;-74
2024/01/11 04:00:32;;;;;;;245.50;94.03;;;;;;;-146.82;100.00;71671.09;5034799;28;20052;-75
2024/01/11 04:02:57;;;;;;;224.52;89.70;;;;;;;-146.82;100.00;71671.09;5034816;28;20381;-76
2024/01/11 04:05:22;;;;;;;230.63;89.53;;;;;;;-146.82;100.00;71671.09;5034804;28;20033;-76
2024/01/11 04:07:48;;;;;;;235.82;90.95;;;;;;;-146.82;100.00;71671.09;5033621;28;20435;-75
2024/01/11 04:10:16;;;;;;;227.60;91.88;;;;;;;-146.82;100.00;71671.09;5034765;28;20025;-75
2024/01/11 04:12:42;;;;;;;241.80;87.50;;;;;;;-146.82;100.00;71671.09;5034774;28;20330;-76
2024/01/11 04:15:08;;;;;;;218.70;83.68;;;;;;;-146.82;100.00;71671.09;5034681;28;20116;-76
2024/01/11 04:17:33;;;;;;;232.45;89.88;;;;;;;-146.82;100.00;71671.09;5033316;28;20029;-76
2024/01/11 04:19:59;;;;;;;225.07;88.15;;;;;;;-146.82;100.00;71671.09;5034337;28;20124;-75
2024/01/11 04:22:24;;;;;;;220.32;85.88;;;;;;;-146.82;100.00;71671.09;5034495;28;20061;-74
2024/01/11 04:24:50;;;;;;;225.60;90.70;;;;;;;-146.82;100.00;71671.09;5034753;28;20378;-76
2024/01/11 04:27:15;;;;;;;221.63;83.75;;;;;;;-146.82;100.00;71671.09;5034835;28;20449;-75
2024/01/11 04:29:40;;;;;;;206.07;85.22;;;;;;;-146.82;100.00;71671.09;5034802;28;20434;-79
2024/01/11 04:32:06;;;;;;;221.30;81.75;;;;;;;-146.82;100.00;71671.09;5038380;28;20083;-75
2024/01/11 04:34:31;;;;;;;223.27;84.72;;;;;;;-146.82;100.00;71671.09;5037732;28;20082;-76
2024/01/11 04:36:57;;;;;;;211.77;79.60;;;;;;;-146.82;100.00;71671.09;5037277;28;20395;-76
2024/01/11 04:39:22;;;;;;;203.13;80.43;;;;;;;-146.82;100.00;71671.09;5036201;28;20025;-78
2024/01/11 04:41:48;;;;;;;191.07;78.95;;;;;;;-146.82;100.00;71671.09;5034897;28;20333;-75
2024/01/11 04:44:13;;;;;;;209.85;77.55;;;;;;;-146.82;100.00;71671.09;5035075;28;20088;-76
2024/01/11 04:46:38;;;;;;;192.82;78.20;;;;;;;-146.82;100.00;71671.09;5035437;28;20034;-76
2024/01/11 04:49:04;;;;;;;197.55;77.40;;;;;;;-146.82;100.00;71671.09;5034038;28;20033;-75
2024/01/11 04:51:29;;;;;;;206.20;78.18;;;;;;;-146.82;100.00;71671.09;5033781;28;20060;-77
2024/01/11 04:53:55;;;;;;;195.25;77.97;;;;;;;-146.82;100.00;71671.09;5033980;28;20030;-75
2024/01/11 04:56:20;;;;;;;183.63;71.25;;;;;;;-146.82;100.00;71671.09;5034000;28;20103;-77
2024/01/11 04:58:46;;;;;;;208.05;78.15;;;;;;;-146.82;100.00;71671.09;5034219;28;20133;-74
2024/01/11 05:01:13;;;;;;;198.73;75.15;;;;;;;-146.82;100.00;71671.09;5033575;28;20029;-75
2024/01/11 05:03:38;;;;;;;217.25;79.18;;;;;;;-146.82;100.00;71671.09;5033901;28;20378;-77
2024/01/11 05:06:04;;;;;;;194.75;76.75;;;;;;;-146.82;100.00;71671.09;5032580;28;20037;-77
2024/01/11 05:08:29;;;;;;;190.77;75.45;;;;;;;-146.82;100.00;71671.09;5032869;28;20034;-75
2024/01/11 05:10:55;;;;;;;179.95;73.80;;;;;;;-146.82;100.00;71671.09;5032776;28;20462;-77
2024/01/11 05:13:20;;;;;;;186.80;71.38;;;;;;;-146.82;100.00;71671.09;5034176;28;20088;-77
2024/01/11 05:15:46;;;;;;;177.05;70.78;;;;;;;-146.82;100.00;71671.09;5033324;28;20072;-77
2024/01/11 05:18:12;;;;;;;158.27;61.45;;;;;;;-146.82;100.00;71671.09;5033671;28;20108;-77
2024/01/11 05:20:38;;;;;;;150.50;62.20;;;;;;;-146.82;100.00;71671.09;5033684;28;20055;-76
2024/01/11 05:23:03;;;;;;;158.02;60.83;;;;;;;-146.82;100.00;71671.09;5033678;28;20374;-76
2024/01/11 05:25:33;;;;;;;150.40;60.45;;;;;;;-146.82;100.00;71671.09;5033450;28;20034;-74
2024/01/11 05:28:02;;;;;;;154.88;61.35;;;;;;;-146.82;100.00;71671.09;5018676;28;20038;-75
2024/01/11 05:30:30;;;;;;;157.10;61.63;;;;;;;-146.82;100.00;71671.09;5013522;28;20442;-76
2024/01/11 05:32:56;;;;;;;156.68;62.00;;;;;;;-146.82;100.00;71671.09;5013316;28;20169;-75
2024/01/11 05:35:23;;;;;;;155.38;59.80;;;;;;;-146.82;100.00;71671.09;5012494;28;20467;-76
2024/01/11 05:37:49;;;;;;;156.55;61.35;;;;;;;-146.82;100.00;71671.09;5013687;28;20033;-76
2024/01/11 05:40:15;;;;;;;132.10;54.60;;;;;;;-146.82;100.00;71671.09;5013519;28;20030;-77
2024/01/11 05:42:40;;;;;;;160.02;65.47;;;;;;;-146.82;100.00;71671.09;5012398;28;20032;-77
2024/01/11 05:45:06;;;;;;;139.73;55.97;;;;;;;-146.82;100.00;71671.09;5011988;28;20037;-75
2024/01/11 05:47:31;;;;;;;137.50;54.10;;;;;;;-146.82;100.00;71671.09;5013330;28;20030;-75
2024/01/11 05:49:57;;;;;;;147.00;58.10;;;;;;;-146.82;100.00;71671.09;5012310;28;20109;-76
2024/01/11 05:52:22;;;;;;;148.35;54.35;;;;;;;-146.82;100.00;71671.09;5015404;28;20057;-76
2024/01/11 05:54:48;;;;;;;143.73;56.67;;;;;;;-146.82;100.00;71671.09;5012826;28;20037;-78
2024/01/11 05:57:13;;;;;;;133.38;53.95;;;;;;;-146.82;100.00;71671.09;5012234;28;20037;-77
2024/01/11 05:59:46;;;;;;;116.45;50.10;;;;;;;-146.82;100.00;71671.09;5012358;28;20440;-79
2024/01/11 06:02:12;;;;;;;137.75;52.13;;;;;;;-146.82;100.00;71671.09;5014059;28;20060;-77
2024/01/11 06:04:38;;;;;;;131.50;48.40;;;;;;;-146.82;100.00;71671.09;5018765;28;20080;-79
2024/01/11 06:07:03;;;;;;;126.30;49.17;;;;;;;-146.82;100.00;71671.09;5033221;28;20478;-79
2024/01/11 06:09:29;;;;;;;113.70;49.85;;;;;;;-146.82;100.00;71671.09;5033349;28;20037;-79
2024/01/11 06:11:54;;;;;;;123.72;49.45;;;;;;;-146.82;100.00;71671.09;5028273;28;20030;-79
2024/01/11 06:14:20;;;;;;;131.02;50.30;;;;;;;-146.82;100.00;71671.09;5012157;28;20042;-80
2024/01/11 06:16:45;;;;;;;139.90;52.30;;;;;;;-146.82;100.00;71671.09;5013606;28;20030;-80
2024/01/11 06:19:11;;;;;;;126.53;49.58;;;;;;;-146.82;100.00;71671.09;4998013;28;20036;-78
2024/01/11 06:21:36;;;;;;;118.15;49.20;;;;;;;-146.82;100.00;71671.09;5015518;28;20026;-78
2024/01/11 06:24:03;;;;;;;117.25;48.30;;;;;;;-146.82;100.00;71671.09;5018243;28;20022;-76
2024/01/11 06:26:28;;;;;;;118.13;47.35;;;;;;;-146.82;100.00;71671.09;5020685;28;20033;-78
2024/01/11 06:28:54;;;;;;;113.72;47.85;;;;;;;-146.82;100.00;71671.09;5017666;28;20038;-78
2024/01/11 06:31:19;;;;;;;112.32;44.85;;;;;;;-146.82;100.00;71671.09;5017343;28;20034;-79
2024/01/11 06:33:45;;;;;;;115.82;47.97;;;;;;;-146.82;100.00;71671.09;5017138;28;20036;-79
2024/01/11 06:36:10;;;;;;;110.18;45.45;;;;;;;-146.82;100.00;71671.09;5015378;28;20053;-78
2024/01/11 06:38:35;;;;;;;111.35;46.75;;;;;;;-146.82;100.00;71671.09;5017010;28;20029;-76
2024/01/11 06:41:01;;;;;;;112.70;44.40;;;;;;;-146.82;100.00;71671.09;5015542;28;20060;-77
2024/01/11 06:43:26;;;;;;;111.80;45.17;;;;;;;-146.82;100.00;71671.09;5017257;28;20441;-77
2024/01/11 06:45:53;;;;;;;119.63;46.45;;;;;;;-146.82;100.00;71671.09;5016672;28;20041;-78
2024/01/11 06:48:18;;;;;;;102.03;42.28;;;;;;;-146.82;100.00;71671.09;5016856;28;20033;-78
2024/01/11 06:50:44;;;;;;;104.97;43.15;;;;;;;-146.82;100.00;71671.09;5016767;28;20467;-77
2024/01/11 06:53:09;;;;;;;100.40;41.22;;;;;;;-146.82;100.00;71671.09;5016669;28;20052;-78
2024/01/11 06:55:35;;;;;;;107.18;43.25;;;;;;;-146.82;100.00;71671.09;5020280;28;20044;-79
2024/01/11 06:58:01;;;;;;;114.90;47.28;;;;;;;-146.82;100.00;71671.09;5023832;28;20029;-79
2024/01/11 07:00:27;;;;;;;105.30;43.20;;;;;;;-146.82;100.00;71671.09;5024790;28;20029;-79
2024/01/11 07:02:53;;;;;;;98.22;43.20;;;;;;;-146.82;100.00;71671.09;5021016;28;20026;-78
2024/01/11 07:05:19;;;;;;;101.10;43.00;;;;;;;-146.82;100.00;71671.09;5015469;28;20375;-81
2024/01/11 07:07:44;;;;;;;106.22;44.05;;;;;;;-146.82;100.00;71671.09;5016352;28;20037;-78
2024/01/11 07:10:10;;;;;;;102.88;44.03;;;;;;;-146.82;100.00;71671.09;4998056;28;20030;-80
2024/01/11 07:12:37;;;;;;;104.10;42.92;;;;;;;-146.82;100.00;71671.09;5015296;28;20025;-78
2024/01/11 07:15:04;;;;;;;99.78;43.13;;;;;;;-146.82;100.00;71671.09;5013896;28;20036;-78
2024/01/11 07:17:30;;;;;;;93.85;40.17;;;;;;;-146.82;100.00;71671.09;5015217;28;20025;-80
2024/01/11 07:19:55;;;;;;;94.75;37.33;;;;;;;-146.82;100.00;71671.09;5013864;28;20040;-78
2024/01/11 07:22:21;;;;;;;87.85;36.47;;;;;;;-146.82;100.00;71671.09;5015158;28;20538;-79
2024/01/11 07:24:46;;;;;;;84.35;36.42;;;;;;;-146.82;100.00;71671.09;5014048;28;20368;-79
2024/01/11 07:27:11;;;;;;;86.60;35.60;;;;;;;-146.82;100.00;71671.09;5015013;28;20026;-78
2024/01/11 07:29:37;;;;;;;96.15;37.80;;;;;;;-146.82;100.00;71671.09;5012865;28;20033;-79
2024/01/11 07:32:06;;;;;;;79.70;35.22;;;;;;;-146.82;100.00;71671.09;5015505;28;20033;-79
2024/01/11 07:34:32;;;;;;;76.22;31.80;;;;;;;-146.82;100.00;71671.09;5016040;28;20486;-78
2024/01/11 07:36:58;;;;;;;71.10;31.02;;;;;;;-146.82;100.00;71671.09;5013834;28;20049;-80
2024/01/11 07:39:24;;;;;;;66.63;30.13;;;;;;;-146.82;100.00;71671.09;5014363;28;20382;-80
2024/01/11 07:41:49;;;;;;;64.38;28.20;;;;;;;-146.82;100.00;71671.09;5015622;28;20029;-80
2024/01/11 07:44:15;;;;;;;72.20;29.23;;;;;;;-146.82;100.00;71671.09;5016090;28;20021;-79
2024/01/11 07:46:40;;;;;;;68.40;27.67;;;;;;;-146.82;100.00;71671.09;5015819;28;20463;-79
2024/01/11 07:49:06;;;;;;;56.75;25.40;;;;;;;-146.82;100.00;71671.09;5015699;28;20040;-79
2024/01/11 07:51:32;;;;;;;58.22;26.08;;;;;;;-146.82;100.00;71671.09;5015518;28;20105;-79
2024/01/11 07:53:58;;;;;;;63.67;26.63;;;;;;;-146.82;100.00;71671.09;5015542;28;20456;-80
2024/01/11 07:56:24;;;;;;;59.67;23.67;;;;;;;-146.82;100.00;71671.09;5015106;28;20037;-78
2024/01/11 07:58:49;;;;;;;60.13;25.25;;;;;;;-146.82;100.00;71671.09;5013966;28;20101;-79
2024/01/11 08:01:15;;;;;;;57.72;25.77;;;;;;;-146.82;100.00;71671.09;5015281;28;20387;-79
2024/01/11 08:03:41;;;;;;;51.95;24.45;;;;;;;-146.82;100.00;71671.09;4997398;28;20025;-79
2024/01/11 08:06:07;;;;;;;57.28;23.08;;;;;;;-146.82;100.00;71671.09;5014068;28;20502;-80
2024/01/11 08:08:33;;;;;;;48.60;21.27;;;;;;;-146.82;100.00;71671.09;5015135;28;20459;-78
2024/01/11 08:10:59;;;;;;;51.13;21.08;;;;;;;-146.82;100.00;71671.09;5013604;28;20391;-78
2024/01/11 08:13:24;;;;;;;47.15;22.05;;;;;;;-146.82;100.00;71671.09;5014836;28;20042;-79
2024/01/11 08:15:50;;;;;;;49.20;21.80;;;;;;;-146.82;100.00;71671.09;5015235;28;20030;-78
2024/01/11 08:18:18;;;;;;;42.38;20.25;;;;;;;-146.82;100.00;71671.09;5015003;28;20029;-80
2024/01/11 08:20:43;;;;;;;44.28;19.98;;;;;;;-146.82;100.00;71671.09;5015020;28;20486;-79
2024/01/11 08:23:09;;;;;;;43.00;18.50;;;;;;;-146.82;100.00;71671.09;5014657;28;20026;-79
2024/01/11 08:25:35;;;;;;;47.50;20.20;;;;;;;-146.82;100.00;71671.09;5014971;28;20036;-80
2024/01/11 08:28:00;;;;;;;47.75;19.55;;;;;;;-146.82;100.00;71671.09;5014658;28;20030;-78
2024/01/11 08:30:26;;;;;;;42.65;20.60;;;;;;;-146.82;100.00;71671.09;5014926;28;20026;-79
2024/01/11 08:32:51;;;;;;;43.30;19.33;;;;;;;-146.82;100.00;71671.09;5014300;28;20041;-79
2024/01/11 08:35:17;;;;;;;43.60;20.27;;;;;;;-146.82;100.00;71671.09;5014830;28;20100;-80
2024/01/11 08:37:42;;;;;;;44.80;19.17;;;;;;;-146.82;100.00;71671.09;5015072;28;20113;-78
2024/01/11 08:40:09;;;;;;;38.40;19.50;;;;;;;-146.82;100.00;71671.09;5013748;28;20092;-79
2024/01/11 08:42:34;;;;;;;39.28;19.67;;;;;;;-146.82;100.00;71671.09;5015004;28;20026;-78
2024/01/11 08:45:06;;;;;;;38.83;19.75;;;;;;;-146.82;100.00;71671.09;5022992;28;20022;-80
2024/01/11 08:47:32;;;;;;;43.65;19.40;;;;;;;-146.82;100.00;71671.09;5025463;28;20022;-79
2024/01/11 08:49:57;;;;;;;40.67;19.73;;;;;;;-146.82;100.00;71671.09;5028256;28;20053;-79
2024/01/11 08:52:23;;;;;;;46.30;19.27;;;;;;;-146.82;100.00;71671.09;5027119;28;20033;-79
2024/01/11 08:54:49;;;;;;;46.47;19.70;;;;;;;-146.82;100.00;71671.09;5014188;28;20041;-80
2024/01/11 08:57:15;;;;;;;42.90;18.90;;;;;;;-146.82;100.00;71671.09;5015829;28;20049;-78
2024/01/11 08:59:41;;;;;;;41.72;18.95;;;;;;;-146.82;100.00;71671.09;5015792;28;20027;-80
2024/01/11 09:02:06;;;;;;;40.72;18.38;;;;;;;-146.82;100.00;71671.09;5014528;28;20029;-79
2024/01/11 09:04:33;;;;;;;37.10;17.95;;;;;;;-146.82;100.00;71671.09;5013014;28;20022;-79
2024/01/11 09:06:59;;;;;;;31.35;17.27;;;;;;;-146.82;100.00;71671.09;5014687;28;20036;-78
2024/01/11 09:09:25;;;;;;;41.42;18.77;;;;;;;-146.82;100.00;71671.09;5015098;28;20029;-80
2024/01/11 09:11:50;;;;;;;33.40;16.55;;;;;;;-146.82;100.00;71671.09;5018442;28;20487;-80
2024/01/11 09:14:16;;;;;;;36.78;16.55;;;;;;;-146.82;100.00;71671.09;5019004;28;20028;-80
2024/01/11 09:16:41;;;;;;;34.60;17.63;;;;;;;-146.82;100.00;71671.09;5018282;28;20379;-79
2024/01/11 09:19:07;;;;;;;38.55;17.17;;;;;;;-146.82;100.00;71671.09;5016541;28;20104;-77
2024/01/11 09:21:32;;;;;;;40.70;18.42;;;;;;;-146.82;100.00;71671.09;5015909;28;20017;-81
2024/01/11 09:23:58;;;;;;;35.55;16.88;;;;;;;-146.82;100.00;71671.09;5015526;28;20028;-78
2024/01/11 09:26:23;;;;;;;42.58;18.58;;;;;;;-146.82;100.00;71671.09;5013790;28;20050;-80
2024/01/11 09:28:49;;;;;;;35.92;16.67;;;;;;;-146.82;100.00;71671.09;5014986;28;20432;-80
2024/01/11 09:31:14;;;;;;;39.83;18.40;;;;;;;-146.82;100.00;71671.09;5014731;28;20033;-79
2024/01/11 09:33:40;;;;;;;40.88;18.45;;;;;;;-146.82;100.00;71671.09;5014226;28;20022;-79
2024/01/11 09:36:06;;;;;;;38.80;18.70;;;;;;;-146.82;100.00;71671.09;5012533;28;20053;-77
2024/01/11 09:38:33;;;;;;;42.70;20.20;;;;;;;-146.82;100.00;71671.09;5012893;28;20116;-76
2024/01/11 09:41:09;;;;;;;47.90;21.10;;;;;;;-146.82;100.00;71671.09;4996483;28;20504;-78
2024/01/11 09:43:35;;;;;;;42.65;19.58;;;;;;;-146.82;100.00;71671.09;5013034;28;20029;-80
2024/01/11 09:46:05;;;;;;;41.80;18.42;;;;;;;-146.82;100.00;71671.09;5013956;28;20168;-79
2024/01/11 09:48:35;;;;;;;37.42;19.02;;;;;;;-146.82;100.00;71671.09;5012918;28;20025;-79
2024/01/11 09:51:04;;;;;;;33.42;16.75;;;;;;;-146.82;100.00;71671.09;5014017;28;20033;-80
2024/01/11 09:53:33;;;;;;;33.13;17.75;;;;;;;-146.82;100.00;71671.09;5018437;28;20448;-79
2024/01/11 09:55:59;;;;;;;39.53;17.75;;;;;;;-146.82;100.00;71671.09;5020587;28;20056;-80
2024/01/11 09:58:25;;;;;;;38.40;19.00;;;;;;;-146.82;100.00;71671.09;5019012;28;20372;-75
2024/01/11 10:00:55;;;;;;;35.03;17.48;;;;;;;-146.82;100.00;71671.09;5002293;28;20022;-75
2024/01/11 10:03:21;;;;;;;35.22;16.98;;;;;;;-146.82;100.00;71671.09;5020042;28;20050;-76
2024/01/11 10:05:50;;;;;;;39.30;18.98;;;;;;;-146.82;100.00;71671.09;5019549;28;20056;-75
2024/01/11 10:08:15;;;;;;;38.60;17.80;;;;;;;-146.82;100.00;71671.09;5020185;28;20101;-77
2024/01/11 10:10:41;;;;;;;36.72;17.70;;;;;;;-146.82;100.00;71671.09;5018653;28;20057;-75
2024/01/11 10:13:06;;;;;;;46.15;18.55;;;;;;;-146.82;100.00;71671.09;5018701;28;20442;-77
2024/01/11 10:15:32;;;;;;;38.03;17.65;;;;;;;-146.82;100.00;71671.09;5020561;28;20379;-77
2024/01/11 10:17:57;;;;;;;33.53;17.38;;;;;;;-146.82;100.00;71671.09;5020719;28;20026;-77
2024/01/11 10:20:23;;;;;;;36.85;17.63;;;;;;;-146.82;100.00;71671.09;5002387;28;20109;-76
2024/01/11 10:22:49;;;;;;;36.22;17.73;;;;;;;-146.82;100.00;71671.09;5020024;28;20030;-76
2024/01/11 10:25:15;;;;;;;37.72;17.38;;;;;;;-146.82;100.00;71671.09;5019293;28;20029;-76
2024/01/11 10:27:42;;;;;;;38.08;18.05;;;;;;;-146.82;100.00;71671.09;5020241;28;20352;-75
2024/01/11 10:30:08;;;;;;;37.35;17.60;;;;;;;-146.82;100.00;71671.09;5019809;28;20037;-77
2024/01/11 10:32:34;;;;;;;33.60;16.30;;;;;;;-146.82;100.00;71671.09;5020072;28;20026;-75
2024/01/11 10:35:03;;;;;;;33.70;16.35;;;;;;;-146.82;100.00;71671.09;5021758;28;20022;-77
2024/01/11 10:37:29;;;;;;;34.90;16.38;;;;;;;-146.82;100.00;71671.09;5020218;28;20029;-78
2024/01/11 10:39:56;;;;;;;39.88;15.57;;;;;;;-146.82;100.00;71671.09;5020995;28;20116;-77
2024/01/11 10:42:24;;;;;;;36.33;16.92;;;;;;;-146.82;100.00;71671.09;5018682;28;20025;-76